PWSweather.com
Personal Weather Stations
Station Observations
DEKREUPEL
Wsv De Kreupel, AndijkNL 1619 JV

Wsv De KreupelAndijkNL 1619 JV

Lat: 52.7417364, Lon: 5.1809356

Elevation: 33

Station Type: Rainwise MKiii LR

High Low Average
Temperature 51.6°F10.9°C 47.2°F8.4°C 50.0°F10.0°C
Dew Point 78.5°F25.8°C 73.5°F23.1°C 76.6°F24.8°C
Winds 9.6 mph 15.4 kmh Calm Calm 5.0 mph E8.0 kmh E
Wind Gusts 11.3 mph18.2 kmh -- 6.0 mph9.7 kmh
Humidity - - -
Pressure 30.30 in1026.1 mb 30.16 in1021.3 mb -
Precipitation 0.00 in0.0 mm - -
Hour Temp Dew Point Humidity Winds Wind Gusts Pressure Precip Precip Rate Daily Precip Total
12:04 AM 48.0°F8.9°C 74.4°F23.6°C - 4.3 mph WSW6.9 kmh WSW 4.6 mph7.4 kmh 30.18 in1022.0 mb 0.00 in0.0 mm 0.00 in0.0 mm 0.00 in0.0 mm
12:09 AM 48.0°F8.9°C 74.4°F23.6°C - 3.6 mph W5.8 kmh W 4.1 mph6.6 kmh 30.18 in1022.0 mb 0.00 in0.0 mm 0.00 in0.0 mm 0.00 in0.0 mm
12:14 AM 48.0°F8.9°C 74.3°F23.5°C - 1.1 mph WNW1.8 kmh WNW 2.0 mph3.2 kmh 30.18 in1022.0 mb 0.00 in0.0 mm 0.00 in0.0 mm 0.00 in0.0 mm
12:19 AM 48.0°F8.9°C 74.4°F23.6°C - 0.7 mph SSW1.1 kmh SSW 1.6 mph2.6 kmh 30.18 in1022.0 mb 0.00 in0.0 mm 0.00 in0.0 mm 0.00 in0.0 mm
12:24 AM 47.8°F8.8°C 74.2°F23.4°C - 0.2 mph SSW0.3 kmh SSW 1.6 mph2.6 kmh 30.18 in1022.0 mb 0.00 in0.0 mm 0.00 in0.0 mm 0.00 in0.0 mm
12:30 AM 47.8°F8.8°C 74.2°F23.4°C - 0.1 mph SSW0.2 kmh SSW 1.0 mph1.6 kmh 30.18 in1022.0 mb 0.00 in0.0 mm 0.00 in0.0 mm 0.00 in0.0 mm
12:34 AM 47.8°F8.8°C 74.1°F23.4°C - Calm Calm 0.3 mph0.5 kmh 30.18 in1022.0 mb 0.00 in0.0 mm 0.00 in0.0 mm 0.00 in0.0 mm
12:39 AM 47.8°F8.8°C 74.2°F23.4°C - 1.0 mph SW1.6 kmh SW 1.7 mph2.7 kmh 30.18 in1022.0 mb 0.00 in0.0 mm 0.00 in0.0 mm 0.00 in0.0 mm
12:44 AM 47.8°F8.8°C 74.2°F23.4°C - 1.8 mph SW2.9 kmh SW 2.0 mph3.2 kmh 30.18 in1022.0 mb 0.00 in0.0 mm 0.00 in0.0 mm 0.00 in0.0 mm
12:49 AM 48.0°F8.9°C 74.4°F23.6°C - 1.0 mph SW1.6 kmh SW 1.6 mph2.6 kmh 30.18 in1022.0 mb 0.00 in0.0 mm 0.00 in0.0 mm 0.00 in0.0 mm
12:54 AM 47.9°F8.8°C 74.3°F23.5°C - 2.0 mph SW3.2 kmh SW 2.4 mph3.9 kmh 30.18 in1022.0 mb 0.00 in0.0 mm 0.00 in0.0 mm 0.00 in0.0 mm
12:59 AM 47.8°F8.8°C 74.2°F23.4°C - 1.3 mph SW2.1 kmh SW 1.7 mph2.7 kmh 30.18 in1022.0 mb 0.00 in0.0 mm 0.00 in0.0 mm 0.00 in0.0 mm
01:04 AM 47.9°F8.8°C 74.2°F23.4°C - 0.8 mph SW1.3 kmh SW 1.1 mph1.8 kmh 30.17 in1021.7 mb 0.00 in0.0 mm 0.00 in0.0 mm 0.00 in0.0 mm
01:09 AM 48.0°F8.9°C 74.4°F23.6°C - 1.2 mph SW1.9 kmh SW 1.6 mph2.6 kmh 30.17 in1021.7 mb 0.00 in0.0 mm 0.00 in0.0 mm 0.00 in0.0 mm
01:14 AM 48.0°F8.9°C 74.4°F23.6°C - 0.4 mph SW0.6 kmh SW 0.7 mph1.1 kmh 30.18 in1022.0 mb 0.00 in0.0 mm 0.00 in0.0 mm 0.00 in0.0 mm
01:19 AM 48.1°F8.9°C 74.6°F23.7°C - Calm Calm -- 30.17 in1021.7 mb 0.00 in0.0 mm 0.00 in0.0 mm 0.00 in0.0 mm
01:24 AM 48.1°F8.9°C 74.6°F23.7°C - Calm Calm -- 30.17 in1021.7 mb 0.00 in0.0 mm 0.00 in0.0 mm 0.00 in0.0 mm
01:29 AM 48.2°F9.0°C 74.7°F23.7°C - Calm Calm -- 30.17 in1021.7 mb 0.00 in0.0 mm 0.00 in0.0 mm 0.00 in0.0 mm
01:34 AM 48.2°F9.0°C 74.6°F23.7°C - Calm Calm -- 30.17 in1021.7 mb 0.00 in0.0 mm 0.00 in0.0 mm 0.00 in0.0 mm
01:39 AM 48.2°F9.0°C 74.7°F23.7°C - Calm Calm 0.7 mph1.1 kmh 30.17 in1021.7 mb 0.00 in0.0 mm 0.00 in0.0 mm 0.00 in0.0 mm
01:44 AM 48.2°F9.0°C 74.7°F23.7°C - 0.3 mph ESE0.5 kmh ESE 0.7 mph1.1 kmh 30.17 in1021.7 mb 0.00 in0.0 mm 0.00 in0.0 mm 0.00 in0.0 mm
01:49 AM 48.2°F9.0°C 74.7°F23.7°C - 2.3 mph ESE3.7 kmh ESE 3.1 mph5.0 kmh 30.17 in1021.7 mb 0.00 in0.0 mm 0.00 in0.0 mm 0.00 in0.0 mm
01:54 AM 48.2°F9.0°C 74.7°F23.7°C - 1.3 mph ESE2.1 kmh ESE 1.5 mph2.4 kmh 30.17 in1021.7 mb 0.00 in0.0 mm 0.00 in0.0 mm 0.00 in0.0 mm
01:59 AM 48.1°F8.9°C 74.6°F23.7°C - 1.0 mph ESE1.6 kmh ESE 2.4 mph3.9 kmh 30.17 in1021.7 mb 0.00 in0.0 mm 0.00 in0.0 mm 0.00 in0.0 mm
02:04 AM 48.0°F8.9°C 74.4°F23.6°C - 2.1 mph ESE3.4 kmh ESE 3.0 mph4.8 kmh 30.17 in1021.7 mb 0.00 in0.0 mm 0.00 in0.0 mm 0.00 in0.0 mm
02:09 AM 47.8°F8.8°C 74.1°F23.4°C - 3.0 mph ESE4.8 kmh ESE 3.5 mph5.6 kmh 30.17 in1021.7 mb 0.00 in0.0 mm 0.00 in0.0 mm 0.00 in0.0 mm
02:14 AM 47.8°F8.8°C 74.2°F23.4°C - 3.1 mph ESE5.0 kmh ESE 3.7 mph6.0 kmh 30.16 in1021.3 mb 0.00 in0.0 mm 0.00 in0.0 mm 0.00 in0.0 mm
02:19 AM 47.7°F8.7°C 74.1°F23.4°C - 2.4 mph ESE3.9 kmh ESE 2.9 mph4.7 kmh 30.16 in1021.3 mb 0.00 in0.0 mm 0.00 in0.0 mm 0.00 in0.0 mm
02:24 AM 47.5°F8.6°C 73.9°F23.3°C - 1.7 mph ESE2.7 kmh ESE 2.2 mph3.5 kmh 30.16 in1021.3 mb 0.00 in0.0 mm 0.00 in0.0 mm 0.00 in0.0 mm
02:29 AM 47.2°F8.4°C 73.5°F23.1°C - 2.0 mph ESE3.2 kmh ESE 2.7 mph4.3 kmh 30.16 in1021.3 mb 0.00 in0.0 mm 0.00 in0.0 mm 0.00 in0.0 mm
02:34 AM 47.2°F8.4°C 73.5°F23.1°C - 2.3 mph SE3.7 kmh SE 3.1 mph5.0 kmh 30.16 in1021.3 mb 0.00 in0.0 mm 0.00 in0.0 mm 0.00 in0.0 mm
02:39 AM 47.2°F8.4°C 73.5°F23.1°C - 2.4 mph ESE3.9 kmh ESE 3.1 mph5.0 kmh 30.17 in1021.7 mb 0.00 in0.0 mm 0.00 in0.0 mm 0.00 in0.0 mm
02:44 AM 47.2°F8.4°C 73.5°F23.1°C - 2.7 mph ESE4.3 kmh ESE 3.5 mph5.6 kmh 30.17 in1021.7 mb 0.00 in0.0 mm 0.00 in0.0 mm 0.00 in0.0 mm
02:49 AM 47.2°F8.4°C 73.5°F23.1°C - 3.1 mph ESE5.0 kmh ESE 4.5 mph7.2 kmh 30.16 in1021.3 mb 0.00 in0.0 mm 0.00 in0.0 mm 0.00 in0.0 mm
02:54 AM 47.2°F8.4°C 73.5°F23.1°C - 4.3 mph ESE6.9 kmh ESE 5.2 mph8.4 kmh 30.16 in1021.3 mb 0.00 in0.0 mm 0.00 in0.0 mm 0.00 in0.0 mm
02:59 AM 47.3°F8.5°C 73.5°F23.1°C - 2.8 mph ESE4.5 kmh ESE 3.4 mph5.5 kmh 30.17 in1021.7 mb 0.00 in0.0 mm 0.00 in0.0 mm 0.00 in0.0 mm
03:04 AM 47.6°F8.7°C 73.9°F23.3°C - 2.9 mph E4.7 kmh E 4.0 mph6.4 kmh 30.16 in1021.3 mb 0.00 in0.0 mm 0.00 in0.0 mm 0.00 in0.0 mm
03:09 AM 47.7°F8.7°C 74.0°F23.3°C - 4.9 mph E7.9 kmh E 6.8 mph10.9 kmh 30.17 in1021.7 mb 0.00 in0.0 mm 0.00 in0.0 mm 0.00 in0.0 mm
03:14 AM 47.8°F8.8°C 74.2°F23.4°C - 4.8 mph ESE7.7 kmh ESE 5.6 mph9.0 kmh 30.16 in1021.3 mb 0.00 in0.0 mm 0.00 in0.0 mm 0.00 in0.0 mm
03:19 AM 48.0°F8.9°C 74.3°F23.5°C - 4.2 mph E6.8 kmh E 5.4 mph8.7 kmh 30.16 in1021.3 mb 0.00 in0.0 mm 0.00 in0.0 mm 0.00 in0.0 mm
03:24 AM 47.8°F8.8°C 74.1°F23.4°C - 3.8 mph E6.1 kmh E 5.9 mph9.5 kmh 30.16 in1021.3 mb 0.00 in0.0 mm 0.00 in0.0 mm 0.00 in0.0 mm
03:29 AM 47.8°F8.8°C 74.1°F23.4°C - 3.9 mph E6.3 kmh E 5.3 mph8.5 kmh 30.16 in1021.3 mb 0.00 in0.0 mm 0.00 in0.0 mm 0.00 in0.0 mm
03:34 AM 47.7°F8.7°C 74.1°F23.4°C - 3.6 mph E5.8 kmh E 5.7 mph9.2 kmh 30.16 in1021.3 mb 0.00 in0.0 mm 0.00 in0.0 mm 0.00 in0.0 mm
03:39 AM 47.8°F8.8°C 74.2°F23.4°C - 4.3 mph ENE6.9 kmh ENE 6.0 mph9.7 kmh 30.16 in1021.3 mb 0.00 in0.0 mm 0.00 in0.0 mm 0.00 in0.0 mm
03:44 AM 48.0°F8.9°C 74.4°F23.6°C - 4.7 mph ENE7.6 kmh ENE 6.0 mph9.7 kmh 30.16 in1021.3 mb 0.00 in0.0 mm 0.00 in0.0 mm 0.00 in0.0 mm
03:49 AM 48.1°F8.9°C 74.6°F23.7°C - 5.7 mph ENE9.2 kmh ENE 8.1 mph13.0 kmh 30.16 in1021.3 mb 0.00 in0.0 mm 0.00 in0.0 mm 0.00 in0.0 mm
03:54 AM 48.1°F8.9°C 74.6°F23.7°C - 5.2 mph E8.4 kmh E 7.2 mph11.6 kmh 30.16 in1021.3 mb 0.00 in0.0 mm 0.00 in0.0 mm 0.00 in0.0 mm
03:59 AM 48.0°F8.9°C 74.3°F23.5°C - 5.6 mph E9.0 kmh E 7.5 mph12.1 kmh 30.16 in1021.3 mb 0.00 in0.0 mm 0.00 in0.0 mm 0.00 in0.0 mm
04:04 AM 48.0°F8.9°C 74.4°F23.6°C - 6.8 mph E10.9 kmh E 9.3 mph15.0 kmh 30.16 in1021.3 mb 0.00 in0.0 mm 0.00 in0.0 mm 0.00 in0.0 mm
04:09 AM 48.1°F8.9°C 74.6°F23.7°C - 6.8 mph E10.9 kmh E 9.8 mph15.8 kmh 30.16 in1021.3 mb 0.00 in0.0 mm 0.00 in0.0 mm 0.00 in0.0 mm
04:14 AM 48.2°F9.0°C 74.7°F23.7°C - 5.3 mph E8.5 kmh E 7.5 mph12.1 kmh 30.16 in1021.3 mb 0.00 in0.0 mm 0.00 in0.0 mm 0.00 in0.0 mm
04:19 AM 48.2°F9.0°C 74.6°F23.7°C - 5.6 mph E9.0 kmh E 7.4 mph11.9 kmh 30.16 in1021.3 mb 0.00 in0.0 mm 0.00 in0.0 mm 0.00 in0.0 mm
04:24 AM 48.3°F9.1°C 74.8°F23.8°C - 5.6 mph E9.0 kmh E 8.6 mph13.8 kmh 30.16 in1021.3 mb 0.00 in0.0 mm 0.00 in0.0 mm 0.00 in0.0 mm
04:29 AM 48.5°F9.2°C 74.9°F23.8°C - 4.9 mph E7.9 kmh E 7.1 mph11.4 kmh 30.16 in1021.3 mb 0.00 in0.0 mm 0.00 in0.0 mm 0.00 in0.0 mm
04:34 AM 48.5°F9.2°C 75.0°F23.9°C - 4.8 mph E7.7 kmh E 6.6 mph10.6 kmh 30.16 in1021.3 mb 0.00 in0.0 mm 0.00 in0.0 mm 0.00 in0.0 mm
04:39 AM 48.6°F9.2°C 75.1°F23.9°C - 4.6 mph E7.4 kmh E 5.9 mph9.5 kmh 30.16 in1021.3 mb 0.00 in0.0 mm 0.00 in0.0 mm 0.00 in0.0 mm
04:44 AM 48.7°F9.3°C 75.1°F23.9°C - 5.5 mph E8.9 kmh E 7.3 mph11.7 kmh 30.16 in1021.3 mb 0.00 in0.0 mm 0.00 in0.0 mm 0.00 in0.0 mm
04:49 AM 48.7°F9.3°C 75.2°F24.0°C - 4.9 mph E7.9 kmh E 6.8 mph10.9 kmh 30.16 in1021.3 mb 0.00 in0.0 mm 0.00 in0.0 mm 0.00 in0.0 mm
04:54 AM 48.8°F9.3°C 75.2°F24.0°C - 4.9 mph E7.9 kmh E 7.2 mph11.6 kmh 30.17 in1021.7 mb 0.00 in0.0 mm 0.00 in0.0 mm 0.00 in0.0 mm
04:59 AM 48.9°F9.4°C 75.5°F24.2°C - 3.8 mph E6.1 kmh E 5.1 mph8.2 kmh 30.17 in1021.7 mb 0.00 in0.0 mm 0.00 in0.0 mm 0.00 in0.0 mm
05:04 AM 49.0°F9.4°C 75.6°F24.2°C - 5.3 mph E8.5 kmh E 7.6 mph12.2 kmh 30.17 in1021.7 mb 0.00 in0.0 mm 0.00 in0.0 mm 0.00 in0.0 mm
05:09 AM 49.1°F9.5°C 75.7°F24.3°C - 4.2 mph E6.8 kmh E 5.6 mph9.0 kmh 30.17 in1021.7 mb 0.00 in0.0 mm 0.00 in0.0 mm 0.00 in0.0 mm
05:14 AM 49.1°F9.5°C 75.7°F24.3°C - 5.5 mph E8.9 kmh E 7.3 mph11.7 kmh 30.17 in1021.7 mb 0.00 in0.0 mm 0.00 in0.0 mm 0.00 in0.0 mm
05:19 AM 49.1°F9.5°C 75.7°F24.3°C - 4.8 mph E7.7 kmh E 6.6 mph10.6 kmh 30.17 in1021.7 mb 0.00 in0.0 mm 0.00 in0.0 mm 0.00 in0.0 mm
05:24 AM 49.1°F9.5°C 75.6°F24.2°C - 4.2 mph ESE6.8 kmh ESE 6.0 mph9.7 kmh 30.17 in1021.7 mb 0.00 in0.0 mm 0.00 in0.0 mm 0.00 in0.0 mm
05:29 AM 49.1°F9.5°C 75.6°F24.2°C - 4.7 mph E7.6 kmh E 6.2 mph10.0 kmh 30.18 in1022.0 mb 0.00 in0.0 mm 0.00 in0.0 mm 0.00 in0.0 mm
05:34 AM 49.1°F9.5°C 75.7°F24.3°C - 3.5 mph E5.6 kmh E 5.0 mph8.0 kmh 30.17 in1021.7 mb 0.00 in0.0 mm 0.00 in0.0 mm 0.00 in0.0 mm
05:39 AM 49.1°F9.5°C 75.7°F24.3°C - 4.2 mph ESE6.8 kmh ESE 5.5 mph8.9 kmh 30.17 in1021.7 mb 0.00 in0.0 mm 0.00 in0.0 mm 0.00 in0.0 mm
05:44 AM 49.2°F9.6°C 75.7°F24.3°C - 3.6 mph E5.8 kmh E 4.8 mph7.7 kmh 30.17 in1021.7 mb 0.00 in0.0 mm 0.00 in0.0 mm 0.00 in0.0 mm
05:49 AM 49.2°F9.6°C 75.8°F24.3°C - 4.4 mph E7.1 kmh E 5.8 mph9.3 kmh 30.17 in1021.7 mb 0.00 in0.0 mm 0.00 in0.0 mm 0.00 in0.0 mm
05:54 AM 49.3°F9.6°C 75.9°F24.4°C - 4.4 mph E7.1 kmh E 5.7 mph9.2 kmh 30.18 in1022.0 mb 0.00 in0.0 mm 0.00 in0.0 mm 0.00 in0.0 mm
05:59 AM 49.5°F9.7°C 76.1°F24.5°C - 4.2 mph ESE6.8 kmh ESE 5.5 mph8.9 kmh 30.17 in1021.7 mb 0.00 in0.0 mm 0.00 in0.0 mm 0.00 in0.0 mm
06:04 AM 49.5°F9.7°C 76.1°F24.5°C - 0.9 mph ESE1.4 kmh ESE 2.2 mph3.5 kmh 30.17 in1021.7 mb 0.00 in0.0 mm 0.00 in0.0 mm 0.00 in0.0 mm
06:09 AM 49.6°F9.8°C 76.2°F24.6°C - 0.6 mph ESE1.0 kmh ESE 1.6 mph2.6 kmh 30.17 in1021.7 mb 0.00 in0.0 mm 0.00 in0.0 mm 0.00 in0.0 mm
06:14 AM 49.6°F9.8°C 76.2°F24.6°C - 2.4 mph ESE3.9 kmh ESE 3.1 mph5.0 kmh 30.16 in1021.3 mb 0.00 in0.0 mm 0.00 in0.0 mm 0.00 in0.0 mm
06:19 AM 49.5°F9.7°C 76.0°F24.4°C - 2.2 mph ESE3.5 kmh ESE 2.7 mph4.3 kmh 30.16 in1021.3 mb 0.00 in0.0 mm 0.00 in0.0 mm 0.00 in0.0 mm
06:24 AM 49.5°F9.7°C 76.1°F24.5°C - 1.7 mph ESE2.7 kmh ESE 2.2 mph3.5 kmh 30.16 in1021.3 mb 0.00 in0.0 mm 0.00 in0.0 mm 0.00 in0.0 mm
06:29 AM 49.5°F9.7°C 76.1°F24.5°C - 1.5 mph E2.4 kmh E 2.7 mph4.3 kmh 30.17 in1021.7 mb 0.00 in0.0 mm 0.00 in0.0 mm 0.00 in0.0 mm
06:34 AM 49.6°F9.8°C 76.2°F24.6°C - 2.8 mph E4.5 kmh E 3.6 mph5.8 kmh 30.17 in1021.7 mb 0.00 in0.0 mm 0.00 in0.0 mm 0.00 in0.0 mm
06:39 AM 49.7°F9.8°C 76.4°F24.7°C - 1.9 mph E3.1 kmh E 2.7 mph4.3 kmh 30.17 in1021.7 mb 0.00 in0.0 mm 0.00 in0.0 mm 0.00 in0.0 mm
06:44 AM 49.7°F9.8°C 76.4°F24.7°C - 2.3 mph ENE3.7 kmh ENE 3.1 mph5.0 kmh 30.17 in1021.7 mb 0.00 in0.0 mm 0.00 in0.0 mm 0.00 in0.0 mm
06:49 AM 49.7°F9.8°C 76.4°F24.7°C - 4.9 mph ENE7.9 kmh ENE 7.1 mph11.4 kmh 30.17 in1021.7 mb 0.00 in0.0 mm 0.00 in0.0 mm 0.00 in0.0 mm
06:54 AM 49.7°F9.8°C 76.4°F24.7°C - 5.9 mph ENE9.5 kmh ENE 7.3 mph11.7 kmh 30.17 in1021.7 mb 0.00 in0.0 mm 0.00 in0.0 mm 0.00 in0.0 mm
06:59 AM 49.7°F9.8°C 76.2°F24.6°C - 5.6 mph NE9.0 kmh NE 7.0 mph11.3 kmh 30.18 in1022.0 mb 0.00 in0.0 mm 0.00 in0.0 mm 0.00 in0.0 mm
07:04 AM 49.8°F9.9°C 76.5°F24.7°C - 5.7 mph NE9.2 kmh NE 7.3 mph11.7 kmh 30.18 in1022.0 mb 0.00 in0.0 mm 0.00 in0.0 mm 0.00 in0.0 mm
07:09 AM 49.8°F9.9°C 76.5°F24.7°C - 7.4 mph NE11.9 kmh NE 8.8 mph14.2 kmh 30.18 in1022.0 mb 0.00 in0.0 mm 0.00 in0.0 mm 0.00 in0.0 mm
07:14 AM 49.8°F9.9°C 76.5°F24.7°C - 6.4 mph ENE10.3 kmh ENE 8.1 mph13.0 kmh 30.18 in1022.0 mb 0.00 in0.0 mm 0.00 in0.0 mm 0.00 in0.0 mm
07:19 AM 49.8°F9.9°C 76.5°F24.7°C - 5.9 mph ENE9.5 kmh ENE 7.7 mph12.4 kmh 30.18 in1022.0 mb 0.00 in0.0 mm 0.00 in0.0 mm 0.00 in0.0 mm
07:24 AM 49.8°F9.9°C 76.5°F24.7°C - 5.5 mph ENE8.9 kmh ENE 6.9 mph11.1 kmh 30.19 in1022.4 mb 0.00 in0.0 mm 0.00 in0.0 mm 0.00 in0.0 mm
07:29 AM 49.8°F9.9°C 76.3°F24.6°C - 5.1 mph ENE8.2 kmh ENE 7.1 mph11.4 kmh 30.19 in1022.4 mb 0.00 in0.0 mm 0.00 in0.0 mm 0.00 in0.0 mm
07:34 AM 49.7°F9.8°C 76.2°F24.6°C - 5.1 mph ENE8.2 kmh ENE 7.2 mph11.6 kmh 30.19 in1022.4 mb 0.00 in0.0 mm 0.00 in0.0 mm 0.00 in0.0 mm
07:39 AM 49.7°F9.8°C 76.4°F24.7°C - 5.3 mph ENE8.5 kmh ENE 6.7 mph10.8 kmh 30.19 in1022.4 mb 0.00 in0.0 mm 0.00 in0.0 mm 0.00 in0.0 mm
07:44 AM 49.7°F9.8°C 76.4°F24.7°C - 4.4 mph ENE7.1 kmh ENE 5.9 mph9.5 kmh 30.19 in1022.4 mb 0.00 in0.0 mm 0.00 in0.0 mm 0.00 in0.0 mm
07:49 AM 49.8°F9.9°C 76.5°F24.7°C - 5.0 mph ENE8.0 kmh ENE 7.4 mph11.9 kmh 30.20 in1022.7 mb 0.00 in0.0 mm 0.00 in0.0 mm 0.00 in0.0 mm
07:54 AM 49.7°F9.8°C 76.4°F24.7°C - 5.8 mph ENE9.3 kmh ENE 8.4 mph13.5 kmh 30.19 in1022.4 mb 0.00 in0.0 mm 0.00 in0.0 mm 0.00 in0.0 mm
07:59 AM 49.7°F9.8°C 76.4°F24.7°C - 5.9 mph ENE9.5 kmh ENE 8.7 mph14.0 kmh 30.20 in1022.7 mb 0.00 in0.0 mm 0.00 in0.0 mm 0.00 in0.0 mm
08:04 AM 49.7°F9.8°C 76.4°F24.7°C - 4.7 mph ENE7.6 kmh ENE 6.8 mph10.9 kmh 30.20 in1022.7 mb 0.00 in0.0 mm 0.00 in0.0 mm 0.00 in0.0 mm
08:09 AM 49.7°F9.8°C 76.4°F24.7°C - 5.0 mph E8.0 kmh E 7.2 mph11.6 kmh 30.20 in1022.7 mb 0.00 in0.0 mm 0.00 in0.0 mm 0.00 in0.0 mm
08:14 AM 49.7°F9.8°C 76.2°F24.6°C - 4.8 mph E7.7 kmh E 6.0 mph9.7 kmh 30.20 in1022.7 mb 0.00 in0.0 mm 0.00 in0.0 mm 0.00 in0.0 mm
08:19 AM 49.7°F9.8°C 76.4°F24.7°C - 4.4 mph ENE7.1 kmh ENE 6.7 mph10.8 kmh 30.20 in1022.7 mb 0.00 in0.0 mm 0.00 in0.0 mm 0.00 in0.0 mm
08:24 AM 49.7°F9.8°C 76.2°F24.6°C - 5.6 mph E9.0 kmh E 7.8 mph12.6 kmh 30.20 in1022.7 mb 0.00 in0.0 mm 0.00 in0.0 mm 0.00 in0.0 mm
08:29 AM 49.7°F9.8°C 76.4°F24.7°C - 6.3 mph ENE10.1 kmh ENE 8.9 mph14.3 kmh 30.21 in1023.0 mb 0.00 in0.0 mm 0.00 in0.0 mm 0.00 in0.0 mm
08:34 AM 49.7°F9.8°C 76.2°F24.6°C - 5.6 mph E9.0 kmh E 7.5 mph12.1 kmh 30.21 in1023.0 mb 0.00 in0.0 mm 0.00 in0.0 mm 0.00 in0.0 mm
08:39 AM 49.7°F9.8°C 76.4°F24.7°C - 4.7 mph ENE7.6 kmh ENE 6.6 mph10.6 kmh 30.21 in1023.0 mb 0.00 in0.0 mm 0.00 in0.0 mm 0.00 in0.0 mm
08:44 AM 49.7°F9.8°C 76.4°F24.7°C - 7.0 mph ENE11.3 kmh ENE 9.0 mph14.5 kmh 30.20 in1022.7 mb 0.00 in0.0 mm 0.00 in0.0 mm 0.00 in0.0 mm
08:49 AM 49.8°F9.9°C 76.5°F24.7°C - 4.6 mph E7.4 kmh E 6.4 mph10.3 kmh 30.21 in1023.0 mb 0.00 in0.0 mm 0.00 in0.0 mm 0.00 in0.0 mm
08:54 AM 49.8°F9.9°C 76.5°F24.7°C - 4.3 mph ENE6.9 kmh ENE 6.2 mph10.0 kmh 30.21 in1023.0 mb 0.00 in0.0 mm 0.00 in0.0 mm 0.00 in0.0 mm
08:59 AM 49.9°F9.9°C 76.6°F24.8°C - 4.7 mph ENE7.6 kmh ENE 6.3 mph10.1 kmh 30.21 in1023.0 mb 0.00 in0.0 mm 0.00 in0.0 mm 0.00 in0.0 mm
09:04 AM 50.0°F10.0°C 76.7°F24.8°C - 5.5 mph ENE8.9 kmh ENE 6.9 mph11.1 kmh 30.21 in1023.0 mb 0.00 in0.0 mm 0.00 in0.0 mm 0.00 in0.0 mm
09:09 AM 50.1°F10.1°C 76.8°F24.9°C - 5.3 mph ENE8.5 kmh ENE 7.0 mph11.3 kmh 30.21 in1023.0 mb 0.00 in0.0 mm 0.00 in0.0 mm 0.00 in0.0 mm
09:14 AM 50.1°F10.1°C 76.8°F24.9°C - 6.4 mph ENE10.3 kmh ENE 8.6 mph13.8 kmh 30.21 in1023.0 mb 0.00 in0.0 mm 0.00 in0.0 mm 0.00 in0.0 mm
09:19 AM 50.2°F10.1°C 76.8°F24.9°C - 5.9 mph ENE9.5 kmh ENE 7.6 mph12.2 kmh 30.21 in1023.0 mb 0.00 in0.0 mm 0.00 in0.0 mm 0.00 in0.0 mm
09:24 AM 50.2°F10.1°C 76.9°F24.9°C - 6.4 mph NE10.3 kmh NE 8.4 mph13.5 kmh 30.21 in1023.0 mb 0.00 in0.0 mm 0.00 in0.0 mm 0.00 in0.0 mm
09:29 AM 50.2°F10.1°C 76.9°F24.9°C - 6.6 mph ENE10.6 kmh ENE 8.4 mph13.5 kmh 30.21 in1023.0 mb 0.00 in0.0 mm 0.00 in0.0 mm 0.00 in0.0 mm
09:34 AM 50.2°F10.1°C 76.9°F24.9°C - 7.3 mph NE11.7 kmh NE 9.0 mph14.5 kmh 30.21 in1023.0 mb 0.00 in0.0 mm 0.00 in0.0 mm 0.00 in0.0 mm
09:39 AM 50.3°F10.2°C 77.0°F25.0°C - 5.6 mph ENE9.0 kmh ENE 7.8 mph12.6 kmh 30.21 in1023.0 mb 0.00 in0.0 mm 0.00 in0.0 mm 0.00 in0.0 mm
09:44 AM 50.5°F10.3°C 77.3°F25.2°C - 6.5 mph ENE10.5 kmh ENE 8.0 mph12.9 kmh 30.22 in1023.4 mb 0.00 in0.0 mm 0.00 in0.0 mm 0.00 in0.0 mm
09:49 AM 50.3°F10.2°C 76.9°F24.9°C - 6.3 mph ENE10.1 kmh ENE 8.0 mph12.9 kmh 30.22 in1023.4 mb 0.00 in0.0 mm 0.00 in0.0 mm 0.00 in0.0 mm
09:54 AM 50.3°F10.2°C 76.9°F24.9°C - 5.6 mph ENE9.0 kmh ENE 6.1 mph9.8 kmh 30.23 in1023.7 mb 0.00 in0.0 mm 0.00 in0.0 mm 0.00 in0.0 mm
09:59 AM 50.3°F10.2°C 76.9°F24.9°C - 5.4 mph ENE8.7 kmh ENE 5.4 mph8.7 kmh 30.23 in1023.7 mb 0.00 in0.0 mm 0.00 in0.0 mm 0.00 in0.0 mm
10:04 AM 50.3°F10.2°C 76.9°F24.9°C - 8.1 mph NE13.0 kmh NE 9.0 mph14.5 kmh 30.23 in1023.7 mb 0.00 in0.0 mm 0.00 in0.0 mm 0.00 in0.0 mm
10:09 AM 50.3°F10.2°C 77.0°F25.0°C - 7.8 mph NE12.6 kmh NE 9.3 mph15.0 kmh 30.23 in1023.7 mb 0.00 in0.0 mm 0.00 in0.0 mm 0.00 in0.0 mm
10:14 AM 50.5°F10.3°C 77.3°F25.2°C - 6.8 mph ENE10.9 kmh ENE 8.3 mph13.4 kmh 30.23 in1023.7 mb 0.00 in0.0 mm 0.00 in0.0 mm 0.00 in0.0 mm
10:19 AM 50.5°F10.3°C 77.1°F25.1°C - 7.9 mph ENE12.7 kmh ENE 9.8 mph15.8 kmh 30.23 in1023.7 mb 0.00 in0.0 mm 0.00 in0.0 mm 0.00 in0.0 mm
10:24 AM 50.3°F10.2°C 77.0°F25.0°C - 6.5 mph ENE10.5 kmh ENE 8.4 mph13.5 kmh 30.23 in1023.7 mb 0.00 in0.0 mm 0.00 in0.0 mm 0.00 in0.0 mm
10:29 AM 50.3°F10.2°C 77.0°F25.0°C - 5.8 mph NE9.3 kmh NE 8.0 mph12.9 kmh 30.24 in1024.0 mb 0.00 in0.0 mm 0.00 in0.0 mm 0.00 in0.0 mm
10:34 AM 50.3°F10.2°C 77.0°F25.0°C - 7.1 mph ENE11.4 kmh ENE 9.1 mph14.6 kmh 30.24 in1024.0 mb 0.00 in0.0 mm 0.00 in0.0 mm 0.00 in0.0 mm
10:39 AM 50.2°F10.1°C 76.9°F24.9°C - 6.6 mph ENE10.6 kmh ENE 9.1 mph14.6 kmh 30.24 in1024.0 mb 0.00 in0.0 mm 0.00 in0.0 mm 0.00 in0.0 mm
10:44 AM 50.2°F10.1°C 76.9°F24.9°C - 5.9 mph NE9.5 kmh NE 8.0 mph12.9 kmh 30.24 in1024.0 mb 0.00 in0.0 mm 0.00 in0.0 mm 0.00 in0.0 mm
10:49 AM 50.2°F10.1°C 76.8°F24.9°C - 6.9 mph ENE11.1 kmh ENE 8.8 mph14.2 kmh 30.24 in1024.0 mb 0.00 in0.0 mm 0.00 in0.0 mm 0.00 in0.0 mm
10:54 AM 50.2°F10.1°C 76.9°F24.9°C - 7.9 mph ENE12.7 kmh ENE 10.0 mph16.1 kmh 30.24 in1024.0 mb 0.00 in0.0 mm 0.00 in0.0 mm 0.00 in0.0 mm
10:59 AM 50.2°F10.1°C 76.9°F24.9°C - 7.4 mph ENE11.9 kmh ENE 9.4 mph15.1 kmh 30.23 in1023.7 mb 0.00 in0.0 mm 0.00 in0.0 mm 0.00 in0.0 mm
11:04 AM 50.3°F10.2°C 77.0°F25.0°C - 6.2 mph NE10.0 kmh NE 7.6 mph12.2 kmh 30.24 in1024.0 mb 0.00 in0.0 mm 0.00 in0.0 mm 0.00 in0.0 mm
11:09 AM 50.3°F10.2°C 77.0°F25.0°C - 6.8 mph ENE10.9 kmh ENE 8.9 mph14.3 kmh 30.24 in1024.0 mb 0.00 in0.0 mm 0.00 in0.0 mm 0.00 in0.0 mm
11:14 AM 50.3°F10.2°C 76.9°F24.9°C - 5.9 mph E9.5 kmh E 8.1 mph13.0 kmh 30.24 in1024.0 mb 0.00 in0.0 mm 0.00 in0.0 mm 0.00 in0.0 mm
11:19 AM 50.2°F10.1°C 76.9°F24.9°C - 6.0 mph E9.7 kmh E 8.2 mph13.2 kmh 30.24 in1024.0 mb 0.00 in0.0 mm 0.00 in0.0 mm 0.00 in0.0 mm
11:24 AM 50.0°F10.0°C 76.7°F24.8°C - 5.9 mph E9.5 kmh E 7.9 mph12.7 kmh 30.24 in1024.0 mb 0.00 in0.0 mm 0.00 in0.0 mm 0.00 in0.0 mm
11:29 AM 49.8°F9.9°C 76.5°F24.7°C - 7.2 mph E11.6 kmh E 10.7 mph17.2 kmh 30.24 in1024.0 mb 0.00 in0.0 mm 0.00 in0.0 mm 0.00 in0.0 mm
11:34 AM 49.7°F9.8°C 76.4°F24.7°C - 5.2 mph NE8.4 kmh NE 6.7 mph10.8 kmh 30.24 in1024.0 mb 0.00 in0.0 mm 0.00 in0.0 mm 0.00 in0.0 mm
11:39 AM 49.6°F9.8°C 76.2°F24.6°C - 6.1 mph ENE9.8 kmh ENE 8.4 mph13.5 kmh 30.24 in1024.0 mb 0.00 in0.0 mm 0.00 in0.0 mm 0.00 in0.0 mm
11:44 AM 49.6°F9.8°C 76.2°F24.6°C - 5.4 mph ENE8.7 kmh ENE 7.0 mph11.3 kmh 30.24 in1024.0 mb 0.00 in0.0 mm 0.00 in0.0 mm 0.00 in0.0 mm
11:49 AM 49.7°F9.8°C 76.2°F24.6°C - 4.6 mph E7.4 kmh E 6.0 mph9.7 kmh 30.24 in1024.0 mb 0.00 in0.0 mm 0.00 in0.0 mm 0.00 in0.0 mm
11:54 AM 49.7°F9.8°C 76.2°F24.6°C - 4.5 mph ENE7.2 kmh ENE 5.8 mph9.3 kmh 30.24 in1024.0 mb 0.00 in0.0 mm 0.00 in0.0 mm 0.00 in0.0 mm
11:59 AM 49.8°F9.9°C 76.5°F24.7°C - 3.8 mph ENE6.1 kmh ENE 5.1 mph8.2 kmh 30.24 in1024.0 mb 0.00 in0.0 mm 0.00 in0.0 mm 0.00 in0.0 mm
12:04 PM 49.9°F9.9°C 76.6°F24.8°C - 3.9 mph ENE6.3 kmh ENE 4.8 mph7.7 kmh 30.25 in1024.4 mb 0.00 in0.0 mm 0.00 in0.0 mm 0.00 in0.0 mm
12:09 PM 49.8°F9.9°C 76.5°F24.7°C - 3.2 mph E5.1 kmh E 4.0 mph6.4 kmh 30.25 in1024.4 mb 0.00 in0.0 mm 0.00 in0.0 mm 0.00 in0.0 mm
12:14 PM 49.7°F9.8°C 76.2°F24.6°C - 3.4 mph NE5.5 kmh NE 4.4 mph7.1 kmh 30.24 in1024.0 mb 0.00 in0.0 mm 0.00 in0.0 mm 0.00 in0.0 mm
12:19 PM 49.7°F9.8°C 76.2°F24.6°C - 5.2 mph NE8.4 kmh NE 6.2 mph10.0 kmh 30.24 in1024.0 mb 0.00 in0.0 mm 0.00 in0.0 mm 0.00 in0.0 mm
12:24 PM 49.7°F9.8°C 76.4°F24.7°C - 5.0 mph NE8.0 kmh NE 5.9 mph9.5 kmh 30.23 in1023.7 mb 0.00 in0.0 mm 0.00 in0.0 mm 0.00 in0.0 mm
12:29 PM 49.7°F9.8°C 76.4°F24.7°C - 4.7 mph NE7.6 kmh NE 6.1 mph9.8 kmh 30.24 in1024.0 mb 0.00 in0.0 mm 0.00 in0.0 mm 0.00 in0.0 mm
12:34 PM 49.7°F9.8°C 76.2°F24.6°C - 6.5 mph ENE10.5 kmh ENE 8.1 mph13.0 kmh 30.23 in1023.7 mb 0.00 in0.0 mm 0.00 in0.0 mm 0.00 in0.0 mm
12:39 PM 49.9°F9.9°C 76.6°F24.8°C - 6.9 mph NE11.1 kmh NE 8.3 mph13.4 kmh 30.23 in1023.7 mb 0.00 in0.0 mm 0.00 in0.0 mm 0.00 in0.0 mm
12:44 PM 50.0°F10.0°C 76.7°F24.8°C - 7.7 mph ENE12.4 kmh ENE 9.4 mph15.1 kmh 30.24 in1024.0 mb 0.00 in0.0 mm 0.00 in0.0 mm 0.00 in0.0 mm
12:49 PM 50.1°F10.1°C 76.8°F24.9°C - 8.0 mph NE12.9 kmh NE 9.4 mph15.1 kmh 30.24 in1024.0 mb 0.00 in0.0 mm 0.00 in0.0 mm 0.00 in0.0 mm
12:54 PM 50.2°F10.1°C 76.9°F24.9°C - 8.1 mph ENE13.0 kmh ENE 9.4 mph15.1 kmh 30.23 in1023.7 mb 0.00 in0.0 mm 0.00 in0.0 mm 0.00 in0.0 mm
12:59 PM 50.2°F10.1°C 76.9°F24.9°C - 7.6 mph ENE12.2 kmh ENE 9.6 mph15.4 kmh 30.23 in1023.7 mb 0.00 in0.0 mm 0.00 in0.0 mm 0.00 in0.0 mm
01:04 PM 50.1°F10.1°C 76.8°F24.9°C - 7.6 mph NE12.2 kmh NE 9.2 mph14.8 kmh 30.23 in1023.7 mb 0.00 in0.0 mm 0.00 in0.0 mm 0.00 in0.0 mm
01:09 PM 50.2°F10.1°C 76.8°F24.9°C - 6.3 mph NE10.1 kmh NE 7.5 mph12.1 kmh 30.23 in1023.7 mb 0.00 in0.0 mm 0.00 in0.0 mm 0.00 in0.0 mm
01:14 PM 50.2°F10.1°C 76.9°F24.9°C - 6.1 mph NE9.8 kmh NE 7.7 mph12.4 kmh 30.24 in1024.0 mb 0.00 in0.0 mm 0.00 in0.0 mm 0.00 in0.0 mm
01:19 PM 50.2°F10.1°C 76.8°F24.9°C - 7.1 mph NE11.4 kmh NE 8.7 mph14.0 kmh 30.24 in1024.0 mb 0.00 in0.0 mm 0.00 in0.0 mm 0.00 in0.0 mm
01:24 PM 50.2°F10.1°C 76.9°F24.9°C - 6.7 mph NE10.8 kmh NE 8.2 mph13.2 kmh 30.24 in1024.0 mb 0.00 in0.0 mm 0.00 in0.0 mm 0.00 in0.0 mm
01:29 PM 50.2°F10.1°C 76.9°F24.9°C - 7.5 mph NE12.1 kmh NE 9.0 mph14.5 kmh 30.24 in1024.0 mb 0.00 in0.0 mm 0.00 in0.0 mm 0.00 in0.0 mm
01:34 PM 50.2°F10.1°C 76.9°F24.9°C - 6.7 mph ENE10.8 kmh ENE 8.9 mph14.3 kmh 30.24 in1024.0 mb 0.00 in0.0 mm 0.00 in0.0 mm 0.00 in0.0 mm
01:39 PM 50.2°F10.1°C 76.9°F24.9°C - 7.6 mph NE12.2 kmh NE 9.1 mph14.6 kmh 30.24 in1024.0 mb 0.00 in0.0 mm 0.00 in0.0 mm 0.00 in0.0 mm
01:44 PM 50.3°F10.2°C 76.9°F24.9°C - 5.1 mph ENE8.2 kmh ENE 6.8 mph10.9 kmh 30.24 in1024.0 mb 0.00 in0.0 mm 0.00 in0.0 mm 0.00 in0.0 mm
01:49 PM 50.5°F10.3°C 77.1°F25.1°C - 6.6 mph NE10.6 kmh NE 8.3 mph13.4 kmh 30.24 in1024.0 mb 0.00 in0.0 mm 0.00 in0.0 mm 0.00 in0.0 mm
01:54 PM 50.3°F10.2°C 77.0°F25.0°C - 7.4 mph NE11.9 kmh NE 9.2 mph14.8 kmh 30.24 in1024.0 mb 0.00 in0.0 mm 0.00 in0.0 mm 0.00 in0.0 mm
01:59 PM 50.3°F10.2°C 77.0°F25.0°C - 7.6 mph NE12.2 kmh NE 8.9 mph14.3 kmh 30.24 in1024.0 mb 0.00 in0.0 mm 0.00 in0.0 mm 0.00 in0.0 mm
02:04 PM 50.3°F10.2°C 76.9°F24.9°C - 8.5 mph NE13.7 kmh NE 9.9 mph15.9 kmh 30.24 in1024.0 mb 0.00 in0.0 mm 0.00 in0.0 mm 0.00 in0.0 mm
02:09 PM 50.5°F10.3°C 77.3°F25.2°C - 7.9 mph NE12.7 kmh NE 9.7 mph15.6 kmh 30.24 in1024.0 mb 0.00 in0.0 mm 0.00 in0.0 mm 0.00 in0.0 mm
02:14 PM 50.5°F10.3°C 77.3°F25.2°C - 9.5 mph NE15.3 kmh NE 11.2 mph18.0 kmh 30.24 in1024.0 mb 0.00 in0.0 mm 0.00 in0.0 mm 0.00 in0.0 mm
02:19 PM 50.3°F10.2°C 77.0°F25.0°C - 8.5 mph NE13.7 kmh NE 10.4 mph16.7 kmh 30.25 in1024.4 mb 0.00 in0.0 mm 0.00 in0.0 mm 0.00 in0.0 mm
02:24 PM 50.2°F10.1°C 76.9°F24.9°C - 9.4 mph NE15.1 kmh NE 11.0 mph17.7 kmh 30.24 in1024.0 mb 0.00 in0.0 mm 0.00 in0.0 mm 0.00 in0.0 mm
02:29 PM 50.4°F10.2°C 77.1°F25.1°C - 8.7 mph NE14.0 kmh NE 10.2 mph16.4 kmh 30.24 in1024.0 mb 0.00 in0.0 mm 0.00 in0.0 mm 0.00 in0.0 mm
02:34 PM 50.6°F10.3°C 77.4°F25.2°C - 9.1 mph NE14.6 kmh NE 10.8 mph17.4 kmh 30.24 in1024.0 mb 0.00 in0.0 mm 0.00 in0.0 mm 0.00 in0.0 mm
02:39 PM 50.7°F10.4°C 77.4°F25.2°C - 8.5 mph NE13.7 kmh NE 10.0 mph16.1 kmh 30.24 in1024.0 mb 0.00 in0.0 mm 0.00 in0.0 mm 0.00 in0.0 mm
02:44 PM 50.7°F10.4°C 77.4°F25.2°C - 9.6 mph NE15.4 kmh NE 11.3 mph18.2 kmh 30.24 in1024.0 mb 0.00 in0.0 mm 0.00 in0.0 mm 0.00 in0.0 mm
02:49 PM 50.7°F10.4°C 77.5°F25.3°C - 9.0 mph NE14.5 kmh NE 10.7 mph17.2 kmh 30.24 in1024.0 mb 0.00 in0.0 mm 0.00 in0.0 mm 0.00 in0.0 mm
02:54 PM 50.6°F10.3°C 77.4°F25.2°C - 8.7 mph NE14.0 kmh NE 10.4 mph16.7 kmh 30.24 in1024.0 mb 0.00 in0.0 mm 0.00 in0.0 mm 0.00 in0.0 mm
02:59 PM 50.6°F10.3°C 77.2°F25.1°C - 7.5 mph ENE12.1 kmh ENE 9.4 mph15.1 kmh 30.24 in1024.0 mb 0.00 in0.0 mm 0.00 in0.0 mm 0.00 in0.0 mm
03:04 PM 50.6°F10.3°C 77.4°F25.2°C - 7.9 mph NE12.7 kmh NE 9.1 mph14.6 kmh 30.24 in1024.0 mb 0.00 in0.0 mm 0.00 in0.0 mm 0.00 in0.0 mm
03:09 PM 50.6°F10.3°C 77.4°F25.2°C - 7.0 mph ENE11.3 kmh ENE 8.4 mph13.5 kmh 30.24 in1024.0 mb 0.00 in0.0 mm 0.00 in0.0 mm 0.00 in0.0 mm
03:14 PM 50.7°F10.4°C 77.5°F25.3°C - 5.6 mph ENE9.0 kmh ENE 7.1 mph11.4 kmh 30.24 in1024.0 mb 0.00 in0.0 mm 0.00 in0.0 mm 0.00 in0.0 mm
03:19 PM 50.7°F10.4°C 77.5°F25.3°C - 7.0 mph NE11.3 kmh NE 7.9 mph12.7 kmh 30.24 in1024.0 mb 0.00 in0.0 mm 0.00 in0.0 mm 0.00 in0.0 mm
03:24 PM 50.7°F10.4°C 77.5°F25.3°C - 6.4 mph NE10.3 kmh NE 8.2 mph13.2 kmh 30.24 in1024.0 mb 0.00 in0.0 mm 0.00 in0.0 mm 0.00 in0.0 mm
03:29 PM 50.7°F10.4°C 77.5°F25.3°C - 6.3 mph NE10.1 kmh NE 7.7 mph12.4 kmh 30.24 in1024.0 mb 0.00 in0.0 mm 0.00 in0.0 mm 0.00 in0.0 mm
03:34 PM 50.7°F10.4°C 77.5°F25.3°C - 7.5 mph NE12.1 kmh NE 8.9 mph14.3 kmh 30.24 in1024.0 mb 0.00 in0.0 mm 0.00 in0.0 mm 0.00 in0.0 mm
03:39 PM 50.7°F10.4°C 77.4°F25.2°C - 7.1 mph NE11.4 kmh NE 8.6 mph13.8 kmh 30.24 in1024.0 mb 0.00 in0.0 mm 0.00 in0.0 mm 0.00 in0.0 mm
03:44 PM 50.7°F10.4°C 77.4°F25.2°C - 7.3 mph NE11.7 kmh NE 9.0 mph14.5 kmh 30.25 in1024.4 mb 0.00 in0.0 mm 0.00 in0.0 mm 0.00 in0.0 mm
03:49 PM 50.7°F10.4°C 77.5°F25.3°C - 8.1 mph NE13.0 kmh NE 9.4 mph15.1 kmh 30.25 in1024.4 mb 0.00 in0.0 mm 0.00 in0.0 mm 0.00 in0.0 mm
03:54 PM 50.7°F10.4°C 77.5°F25.3°C - 8.3 mph NE13.4 kmh NE 9.7 mph15.6 kmh 30.25 in1024.4 mb 0.00 in0.0 mm 0.00 in0.0 mm 0.00 in0.0 mm
04:00 PM 50.7°F10.4°C 77.4°F25.2°C - 6.9 mph ENE11.1 kmh ENE 8.9 mph14.3 kmh 30.25 in1024.4 mb 0.00 in0.0 mm 0.00 in0.0 mm 0.00 in0.0 mm
04:04 PM 50.7°F10.4°C 77.4°F25.2°C - 6.3 mph ENE10.1 kmh ENE 8.0 mph12.9 kmh 30.25 in1024.4 mb 0.00 in0.0 mm 0.00 in0.0 mm 0.00 in0.0 mm
04:09 PM 50.7°F10.4°C 77.5°F25.3°C - 6.0 mph NE9.7 kmh NE 7.3 mph11.7 kmh 30.25 in1024.4 mb 0.00 in0.0 mm 0.00 in0.0 mm 0.00 in0.0 mm
04:14 PM 50.7°F10.4°C 77.5°F25.3°C - 8.6 mph NE13.8 kmh NE 10.1 mph16.3 kmh 30.25 in1024.4 mb 0.00 in0.0 mm 0.00 in0.0 mm 0.00 in0.0 mm
04:19 PM 50.8°F10.4°C 77.6°F25.3°C - 8.6 mph NE13.8 kmh NE 10.3 mph16.6 kmh 30.25 in1024.4 mb 0.00 in0.0 mm 0.00 in0.0 mm 0.00 in0.0 mm
04:24 PM 50.7°F10.4°C 77.4°F25.2°C - 8.1 mph NE13.0 kmh NE 9.3 mph15.0 kmh 30.25 in1024.4 mb 0.00 in0.0 mm 0.00 in0.0 mm 0.00 in0.0 mm
04:29 PM 50.7°F10.4°C 77.5°F25.3°C - 7.4 mph ENE11.9 kmh ENE 9.9 mph15.9 kmh 30.25 in1024.4 mb 0.00 in0.0 mm 0.00 in0.0 mm 0.00 in0.0 mm
04:34 PM 50.6°F10.3°C 77.2°F25.1°C - 7.3 mph NE11.7 kmh NE 8.8 mph14.2 kmh 30.25 in1024.4 mb 0.00 in0.0 mm 0.00 in0.0 mm 0.00 in0.0 mm
04:39 PM 50.7°F10.4°C 77.5°F25.3°C - 8.7 mph NE14.0 kmh NE 10.0 mph16.1 kmh 30.25 in1024.4 mb 0.00 in0.0 mm 0.00 in0.0 mm 0.00 in0.0 mm
04:44 PM 50.7°F10.4°C 77.4°F25.2°C - 6.5 mph ENE10.5 kmh ENE 8.7 mph14.0 kmh 30.25 in1024.4 mb 0.00 in0.0 mm 0.00 in0.0 mm 0.00 in0.0 mm
04:49 PM 50.7°F10.4°C 77.5°F25.3°C - 5.7 mph ENE9.2 kmh ENE 8.1 mph13.0 kmh 30.26 in1024.7 mb 0.00 in0.0 mm 0.00 in0.0 mm 0.00 in0.0 mm
04:54 PM 50.7°F10.4°C 77.4°F25.2°C - 6.6 mph ENE10.6 kmh ENE 7.9 mph12.7 kmh 30.27 in1025.1 mb 0.00 in0.0 mm 0.00 in0.0 mm 0.00 in0.0 mm
04:59 PM 50.7°F10.4°C 77.5°F25.3°C - 5.1 mph E8.2 kmh E 6.7 mph10.8 kmh 30.27 in1025.1 mb 0.00 in0.0 mm 0.00 in0.0 mm 0.00 in0.0 mm
05:04 PM 50.6°F10.3°C 77.2°F25.1°C - 6.6 mph ENE10.6 kmh ENE 8.8 mph14.2 kmh 30.27 in1025.1 mb 0.00 in0.0 mm 0.00 in0.0 mm 0.00 in0.0 mm
05:09 PM 50.7°F10.4°C 77.5°F25.3°C - 4.2 mph ENE6.8 kmh ENE 6.0 mph9.7 kmh 30.27 in1025.1 mb 0.00 in0.0 mm 0.00 in0.0 mm 0.00 in0.0 mm
05:14 PM 50.6°F10.3°C 77.2°F25.1°C - 4.7 mph NE7.6 kmh NE 5.9 mph9.5 kmh 30.27 in1025.1 mb 0.00 in0.0 mm 0.00 in0.0 mm 0.00 in0.0 mm
05:19 PM 50.7°F10.4°C 77.5°F25.3°C - 5.5 mph ENE8.9 kmh ENE 7.1 mph11.4 kmh 30.27 in1025.1 mb 0.00 in0.0 mm 0.00 in0.0 mm 0.00 in0.0 mm
05:24 PM 50.7°F10.4°C 77.4°F25.2°C - 3.3 mph ENE5.3 kmh ENE 4.4 mph7.1 kmh 30.27 in1025.1 mb 0.00 in0.0 mm 0.00 in0.0 mm 0.00 in0.0 mm
05:29 PM 50.8°F10.4°C 77.6°F25.3°C - 3.7 mph ENE6.0 kmh ENE 5.2 mph8.4 kmh 30.27 in1025.1 mb 0.00 in0.0 mm 0.00 in0.0 mm 0.00 in0.0 mm
05:34 PM 50.8°F10.4°C 77.5°F25.3°C - 4.4 mph ENE7.1 kmh ENE 6.7 mph10.8 kmh 30.27 in1025.1 mb 0.00 in0.0 mm 0.00 in0.0 mm 0.00 in0.0 mm
05:39 PM 50.8°F10.4°C 77.5°F25.3°C - 4.4 mph E7.1 kmh E 6.0 mph9.7 kmh 30.28 in1025.4 mb 0.00 in0.0 mm 0.00 in0.0 mm 0.00 in0.0 mm
05:44 PM 50.8°F10.4°C 77.6°F25.3°C - 4.0 mph ENE6.4 kmh ENE 6.1 mph9.8 kmh 30.28 in1025.4 mb 0.00 in0.0 mm 0.00 in0.0 mm 0.00 in0.0 mm
05:49 PM 51.0°F10.6°C 77.8°F25.4°C - 3.6 mph ENE5.8 kmh ENE 4.9 mph7.9 kmh 30.28 in1025.4 mb 0.00 in0.0 mm 0.00 in0.0 mm 0.00 in0.0 mm
05:54 PM 51.0°F10.6°C 77.8°F25.4°C - 4.5 mph ENE7.2 kmh ENE 5.9 mph9.5 kmh 30.28 in1025.4 mb 0.00 in0.0 mm 0.00 in0.0 mm 0.00 in0.0 mm
05:59 PM 51.0°F10.6°C 77.8°F25.4°C - 4.2 mph ENE6.8 kmh ENE 5.5 mph8.9 kmh 30.28 in1025.4 mb 0.00 in0.0 mm 0.00 in0.0 mm 0.00 in0.0 mm
06:04 PM 51.0°F10.6°C 77.7°F25.4°C - 4.3 mph NE6.9 kmh NE 6.0 mph9.7 kmh 30.28 in1025.4 mb 0.00 in0.0 mm 0.00 in0.0 mm 0.00 in0.0 mm
06:09 PM 51.0°F10.6°C 77.8°F25.4°C - 3.6 mph E5.8 kmh E 5.1 mph8.2 kmh 30.28 in1025.4 mb 0.00 in0.0 mm 0.00 in0.0 mm 0.00 in0.0 mm
06:14 PM 51.1°F10.6°C 77.9°F25.5°C - 4.8 mph ENE7.7 kmh ENE 6.6 mph10.6 kmh 30.28 in1025.4 mb 0.00 in0.0 mm 0.00 in0.0 mm 0.00 in0.0 mm
06:19 PM 51.2°F10.7°C 78.0°F25.6°C - 3.9 mph ENE6.3 kmh ENE 5.2 mph8.4 kmh 30.28 in1025.4 mb 0.00 in0.0 mm 0.00 in0.0 mm 0.00 in0.0 mm
06:24 PM 51.1°F10.6°C 77.8°F25.4°C - 4.3 mph E6.9 kmh E 6.0 mph9.7 kmh 30.28 in1025.4 mb 0.00 in0.0 mm 0.00 in0.0 mm 0.00 in0.0 mm
06:29 PM 51.2°F10.7°C 77.9°F25.5°C - 3.5 mph ENE5.6 kmh ENE 5.2 mph8.4 kmh 30.28 in1025.4 mb 0.00 in0.0 mm 0.00 in0.0 mm 0.00 in0.0 mm
06:34 PM 51.2°F10.7°C 78.0°F25.6°C - 4.4 mph ENE7.1 kmh ENE 5.7 mph9.2 kmh 30.28 in1025.4 mb 0.00 in0.0 mm 0.00 in0.0 mm 0.00 in0.0 mm
06:39 PM 51.3°F10.7°C 78.2°F25.7°C - 5.6 mph ENE9.0 kmh ENE 7.4 mph11.9 kmh 30.28 in1025.4 mb 0.00 in0.0 mm 0.00 in0.0 mm 0.00 in0.0 mm
06:44 PM 51.3°F10.7°C 78.2°F25.7°C - 5.4 mph ENE8.7 kmh ENE 7.3 mph11.7 kmh 30.28 in1025.4 mb 0.00 in0.0 mm 0.00 in0.0 mm 0.00 in0.0 mm
06:49 PM 51.3°F10.7°C 78.0°F25.6°C - 6.3 mph ENE10.1 kmh ENE 7.8 mph12.6 kmh 30.28 in1025.4 mb 0.00 in0.0 mm 0.00 in0.0 mm 0.00 in0.0 mm
06:54 PM 51.4°F10.8°C 78.1°F25.6°C - 5.5 mph ENE8.9 kmh ENE 7.2 mph11.6 kmh 30.28 in1025.4 mb 0.00 in0.0 mm 0.00 in0.0 mm 0.00 in0.0 mm
06:59 PM 51.5°F10.8°C 78.4°F25.8°C - 5.0 mph ENE8.0 kmh ENE 6.6 mph10.6 kmh 30.28 in1025.4 mb 0.00 in0.0 mm 0.00 in0.0 mm 0.00 in0.0 mm
07:04 PM 51.5°F10.8°C 78.4°F25.8°C - 5.4 mph ENE8.7 kmh ENE 7.3 mph11.7 kmh 30.29 in1025.7 mb 0.00 in0.0 mm 0.00 in0.0 mm 0.00 in0.0 mm
07:09 PM 51.6°F10.9°C 78.5°F25.8°C - 6.1 mph ENE9.8 kmh ENE 7.8 mph12.6 kmh 30.28 in1025.4 mb 0.00 in0.0 mm 0.00 in0.0 mm 0.00 in0.0 mm
07:14 PM 51.6°F10.9°C 78.5°F25.8°C - 5.0 mph ENE8.0 kmh ENE 6.8 mph10.9 kmh 30.28 in1025.4 mb 0.00 in0.0 mm 0.00 in0.0 mm 0.00 in0.0 mm
07:19 PM 51.6°F10.9°C 78.5°F25.8°C - 3.4 mph E5.5 kmh E 5.9 mph9.5 kmh 30.28 in1025.4 mb 0.00 in0.0 mm 0.00 in0.0 mm 0.00 in0.0 mm
07:24 PM 51.5°F10.8°C 78.4°F25.8°C - 5.7 mph E9.2 kmh E 7.3 mph11.7 kmh 30.28 in1025.4 mb 0.00 in0.0 mm 0.00 in0.0 mm 0.00 in0.0 mm
07:29 PM 51.5°F10.8°C 78.4°F25.8°C - 4.5 mph ENE7.2 kmh ENE 6.5 mph10.5 kmh 30.29 in1025.7 mb 0.00 in0.0 mm 0.00 in0.0 mm 0.00 in0.0 mm
07:34 PM 51.5°F10.8°C 78.4°F25.8°C - 4.8 mph ENE7.7 kmh ENE 6.5 mph10.5 kmh 30.29 in1025.7 mb 0.00 in0.0 mm 0.00 in0.0 mm 0.00 in0.0 mm
07:39 PM 51.5°F10.8°C 78.4°F25.8°C - 5.1 mph ENE8.2 kmh ENE 6.8 mph10.9 kmh 30.29 in1025.7 mb 0.00 in0.0 mm 0.00 in0.0 mm 0.00 in0.0 mm
07:44 PM 51.3°F10.7°C 78.2°F25.7°C - 4.0 mph NE6.4 kmh NE 5.1 mph8.2 kmh 30.29 in1025.7 mb 0.00 in0.0 mm 0.00 in0.0 mm 0.00 in0.0 mm
07:49 PM 51.5°F10.8°C 78.4°F25.8°C - 5.4 mph ENE8.7 kmh ENE 6.9 mph11.1 kmh 30.29 in1025.7 mb 0.00 in0.0 mm 0.00 in0.0 mm 0.00 in0.0 mm
07:54 PM 51.5°F10.8°C 78.4°F25.8°C - 4.4 mph ENE7.1 kmh ENE 6.3 mph10.1 kmh 30.29 in1025.7 mb 0.00 in0.0 mm 0.00 in0.0 mm 0.00 in0.0 mm
07:59 PM 51.3°F10.7°C 78.2°F25.7°C - 4.2 mph ENE6.8 kmh ENE 5.5 mph8.9 kmh 30.29 in1025.7 mb 0.00 in0.0 mm 0.00 in0.0 mm 0.00 in0.0 mm
08:04 PM 51.3°F10.7°C 78.2°F25.7°C - 4.2 mph E6.8 kmh E 5.4 mph8.7 kmh 30.29 in1025.7 mb 0.00 in0.0 mm 0.00 in0.0 mm 0.00 in0.0 mm
08:09 PM 51.3°F10.7°C 78.2°F25.7°C - 4.5 mph ENE7.2 kmh ENE 6.3 mph10.1 kmh 30.29 in1025.7 mb 0.00 in0.0 mm 0.00 in0.0 mm 0.00 in0.0 mm
08:14 PM 51.3°F10.7°C 78.0°F25.6°C - 4.7 mph ENE7.6 kmh ENE 6.0 mph9.7 kmh 30.29 in1025.7 mb 0.00 in0.0 mm 0.00 in0.0 mm 0.00 in0.0 mm
08:19 PM 51.5°F10.8°C 78.4°F25.8°C - 3.8 mph ENE6.1 kmh ENE 4.8 mph7.7 kmh 30.29 in1025.7 mb 0.00 in0.0 mm 0.00 in0.0 mm 0.00 in0.0 mm
08:24 PM 51.5°F10.8°C 78.4°F25.8°C - 4.1 mph ENE6.6 kmh ENE 5.3 mph8.5 kmh 30.29 in1025.7 mb 0.00 in0.0 mm 0.00 in0.0 mm 0.00 in0.0 mm
08:29 PM 51.6°F10.9°C 78.5°F25.8°C - 3.7 mph E6.0 kmh E 5.3 mph8.5 kmh 30.29 in1025.7 mb 0.00 in0.0 mm 0.00 in0.0 mm 0.00 in0.0 mm
08:34 PM 51.6°F10.9°C 78.5°F25.8°C - 3.6 mph E5.8 kmh E 5.1 mph8.2 kmh 30.29 in1025.7 mb 0.00 in0.0 mm 0.00 in0.0 mm 0.00 in0.0 mm
08:39 PM 51.5°F10.8°C 78.4°F25.8°C - 3.6 mph E5.8 kmh E 4.8 mph7.7 kmh 30.30 in1026.1 mb 0.00 in0.0 mm 0.00 in0.0 mm 0.00 in0.0 mm
08:44 PM 51.5°F10.8°C 78.3°F25.7°C - 3.5 mph E5.6 kmh E 4.5 mph7.2 kmh 30.29 in1025.7 mb 0.00 in0.0 mm 0.00 in0.0 mm 0.00 in0.0 mm
08:49 PM 51.5°F10.8°C 78.4°F25.8°C - 4.4 mph E7.1 kmh E 5.8 mph9.3 kmh 30.30 in1026.1 mb 0.00 in0.0 mm 0.00 in0.0 mm 0.00 in0.0 mm
08:54 PM 51.5°F10.8°C 78.4°F25.8°C - 4.3 mph E6.9 kmh E 6.0 mph9.7 kmh 30.30 in1026.1 mb 0.00 in0.0 mm 0.00 in0.0 mm 0.00 in0.0 mm
08:59 PM 51.5°F10.8°C 78.4°F25.8°C - 4.2 mph E6.8 kmh E 5.9 mph9.5 kmh 30.29 in1025.7 mb 0.00 in0.0 mm 0.00 in0.0 mm 0.00 in0.0 mm
09:04 PM 51.5°F10.8°C 78.4°F25.8°C - 3.7 mph E6.0 kmh E 4.6 mph7.4 kmh 30.29 in1025.7 mb 0.00 in0.0 mm 0.00 in0.0 mm 0.00 in0.0 mm
09:09 PM 51.5°F10.8°C 78.3°F25.7°C - 3.0 mph ESE4.8 kmh ESE 3.9 mph6.3 kmh 30.29 in1025.7 mb 0.00 in0.0 mm 0.00 in0.0 mm 0.00 in0.0 mm
09:14 PM 51.5°F10.8°C 78.4°F25.8°C - 2.8 mph E4.5 kmh E 3.5 mph5.6 kmh 30.29 in1025.7 mb 0.00 in0.0 mm 0.00 in0.0 mm 0.00 in0.0 mm
09:19 PM 51.5°F10.8°C 78.4°F25.8°C - 3.0 mph E4.8 kmh E 4.3 mph6.9 kmh 30.29 in1025.7 mb 0.00 in0.0 mm 0.00 in0.0 mm 0.00 in0.0 mm
09:24 PM 51.5°F10.8°C 78.4°F25.8°C - 2.9 mph E4.7 kmh E 3.9 mph6.3 kmh 30.29 in1025.7 mb 0.00 in0.0 mm 0.00 in0.0 mm 0.00 in0.0 mm
09:29 PM 51.5°F10.8°C 78.4°F25.8°C - 2.5 mph E4.0 kmh E 3.2 mph5.1 kmh 30.29 in1025.7 mb 0.00 in0.0 mm 0.00 in0.0 mm 0.00 in0.0 mm
09:34 PM 51.3°F10.7°C 78.2°F25.7°C - 1.6 mph E2.6 kmh E 2.1 mph3.4 kmh 30.29 in1025.7 mb 0.00 in0.0 mm 0.00 in0.0 mm 0.00 in0.0 mm
09:39 PM 51.3°F10.7°C 78.2°F25.7°C - 2.0 mph ESE3.2 kmh ESE 2.4 mph3.9 kmh 30.29 in1025.7 mb 0.00 in0.0 mm 0.00 in0.0 mm 0.00 in0.0 mm
09:44 PM 51.3°F10.7°C 78.2°F25.7°C - 2.4 mph ESE3.9 kmh ESE 3.2 mph5.1 kmh 30.29 in1025.7 mb 0.00 in0.0 mm 0.00 in0.0 mm 0.00 in0.0 mm
09:49 PM 51.3°F10.7°C 78.2°F25.7°C - 2.7 mph ESE4.3 kmh ESE 3.4 mph5.5 kmh 30.29 in1025.7 mb 0.00 in0.0 mm 0.00 in0.0 mm 0.00 in0.0 mm
09:54 PM 51.3°F10.7°C 78.2°F25.7°C - 2.7 mph ESE4.3 kmh ESE 3.7 mph6.0 kmh 30.29 in1025.7 mb 0.00 in0.0 mm 0.00 in0.0 mm 0.00 in0.0 mm
09:59 PM 51.5°F10.8°C 78.3°F25.7°C - 1.7 mph ESE2.7 kmh ESE 2.5 mph4.0 kmh 30.29 in1025.7 mb 0.00 in0.0 mm 0.00 in0.0 mm 0.00 in0.0 mm
10:04 PM 51.3°F10.7°C 78.2°F25.7°C - 1.7 mph ESE2.7 kmh ESE 2.2 mph3.5 kmh 30.29 in1025.7 mb 0.00 in0.0 mm 0.00 in0.0 mm 0.00 in0.0 mm
10:09 PM 51.3°F10.7°C 78.2°F25.7°C - 1.0 mph ESE1.6 kmh ESE 1.9 mph3.1 kmh 30.29 in1025.7 mb 0.00 in0.0 mm 0.00 in0.0 mm 0.00 in0.0 mm
10:14 PM 51.3°F10.7°C 78.2°F25.7°C - 0.9 mph ESE1.4 kmh ESE 1.3 mph2.1 kmh 30.29 in1025.7 mb 0.00 in0.0 mm 0.00 in0.0 mm 0.00 in0.0 mm
10:19 PM 51.3°F10.7°C 78.2°F25.7°C - 1.4 mph ESE2.3 kmh ESE 1.8 mph2.9 kmh 30.29 in1025.7 mb 0.00 in0.0 mm 0.00 in0.0 mm 0.00 in0.0 mm
10:24 PM 51.3°F10.7°C 78.2°F25.7°C - 1.0 mph ESE1.6 kmh ESE 1.4 mph2.3 kmh 30.29 in1025.7 mb 0.00 in0.0 mm 0.00 in0.0 mm 0.00 in0.0 mm
10:29 PM 51.3°F10.7°C 78.0°F25.6°C - 0.1 mph ESE0.2 kmh ESE 1.1 mph1.8 kmh 30.29 in1025.7 mb 0.00 in0.0 mm 0.00 in0.0 mm 0.00 in0.0 mm
10:34 PM 51.3°F10.7°C 78.2°F25.7°C - 0.7 mph ESE1.1 kmh ESE 1.5 mph2.4 kmh 30.29 in1025.7 mb 0.00 in0.0 mm 0.00 in0.0 mm 0.00 in0.0 mm
10:39 PM 51.3°F10.7°C 78.2°F25.7°C - 1.2 mph ESE1.9 kmh ESE 1.7 mph2.7 kmh 30.29 in1025.7 mb 0.00 in0.0 mm 0.00 in0.0 mm 0.00 in0.0 mm
10:44 PM 51.3°F10.7°C 78.0°F25.6°C - 0.7 mph ESE1.1 kmh ESE 1.6 mph2.6 kmh 30.29 in1025.7 mb 0.00 in0.0 mm 0.00 in0.0 mm 0.00 in0.0 mm
10:49 PM 51.2°F10.7°C 78.0°F25.6°C - 1.1 mph ESE1.8 kmh ESE 1.7 mph2.7 kmh 30.29 in1025.7 mb 0.00 in0.0 mm 0.00 in0.0 mm 0.00 in0.0 mm
10:54 PM 51.2°F10.7°C 78.0°F25.6°C - 1.5 mph ESE2.4 kmh ESE 2.1 mph3.4 kmh 30.29 in1025.7 mb 0.00 in0.0 mm 0.00 in0.0 mm 0.00 in0.0 mm
10:59 PM 51.2°F10.7°C 78.0°F25.6°C - 1.9 mph SSE3.1 kmh SSE 2.8 mph4.5 kmh 30.29 in1025.7 mb 0.00 in0.0 mm 0.00 in0.0 mm 0.00 in0.0 mm
11:04 PM 51.2°F10.7°C 78.0°F25.6°C - 1.3 mph SSE2.1 kmh SSE 2.1 mph3.4 kmh 30.28 in1025.4 mb 0.00 in0.0 mm 0.00 in0.0 mm 0.00 in0.0 mm
11:09 PM 51.2°F10.7°C 78.0°F25.6°C - 1.9 mph SSE3.1 kmh SSE 2.4 mph3.9 kmh 30.28 in1025.4 mb 0.00 in0.0 mm 0.00 in0.0 mm 0.00 in0.0 mm
11:14 PM 51.2°F10.7°C 78.0°F25.6°C - 1.7 mph SSE2.7 kmh SSE 2.2 mph3.5 kmh 30.28 in1025.4 mb 0.00 in0.0 mm 0.00 in0.0 mm 0.00 in0.0 mm
11:19 PM 51.1°F10.6°C 77.9°F25.5°C - 1.4 mph SSE2.3 kmh SSE 1.9 mph3.1 kmh 30.28 in1025.4 mb 0.00 in0.0 mm 0.00 in0.0 mm 0.00 in0.0 mm
11:24 PM 51.0°F10.6°C 77.8°F25.4°C - 1.9 mph SSE3.1 kmh SSE 2.3 mph3.7 kmh 30.28 in1025.4 mb 0.00 in0.0 mm 0.00 in0.0 mm 0.00 in0.0 mm
11:29 PM 51.0°F10.6°C 77.8°F25.4°C - 2.6 mph SSE4.2 kmh SSE 3.1 mph5.0 kmh 30.28 in1025.4 mb 0.00 in0.0 mm 0.00 in0.0 mm 0.00 in0.0 mm
11:34 PM 51.0°F10.6°C 77.8°F25.4°C - 2.5 mph SSE4.0 kmh SSE 2.9 mph4.7 kmh 30.28 in1025.4 mb 0.00 in0.0 mm 0.00 in0.0 mm 0.00 in0.0 mm
11:39 PM 51.0°F10.6°C 77.8°F25.4°C - 2.5 mph SSE4.0 kmh SSE 3.2 mph5.1 kmh 30.28 in1025.4 mb 0.00 in0.0 mm 0.00 in0.0 mm 0.00 in0.0 mm
11:44 PM 51.1°F10.6°C 77.9°F25.5°C - 2.4 mph SSE3.9 kmh SSE 3.3 mph5.3 kmh 30.28 in1025.4 mb 0.00 in0.0 mm 0.00 in0.0 mm 0.00 in0.0 mm
11:49 PM 51.2°F10.7°C 77.9°F25.5°C - 0.5 mph SSE0.8 kmh SSE 1.6 mph2.6 kmh 30.28 in1025.4 mb 0.00 in0.0 mm 0.00 in0.0 mm 0.00 in0.0 mm
11:54 PM 51.2°F10.7°C 77.9°F25.5°C - Calm Calm -- 30.28 in1025.4 mb 0.00 in0.0 mm 0.00 in0.0 mm 0.00 in0.0 mm